sensor_id;sensor_type;location;lat;lon;timestamp;temperature;humidity
16347;DHT22;8283;48.504;13.734;2023-08-20T00:01:40;24.50;73.00
16347;DHT22;8283;48.504;13.734;2023-08-20T00:04:26;24.50;73.00
16347;DHT22;8283;48.504;13.734;2023-08-20T00:07:12;24.40;73.50
16347;DHT22;8283;48.504;13.734;2023-08-20T00:09:56;24.40;73.30
16347;DHT22;8283;48.504;13.734;2023-08-20T00:12:40;24.50;73.40
16347;DHT22;8283;48.504;13.734;2023-08-20T00:15:25;24.40;73.40
16347;DHT22;8283;48.504;13.734;2023-08-20T00:18:11;24.50;73.50
16347;DHT22;8283;48.504;13.734;2023-08-20T00:20:56;24.40;73.50
16347;DHT22;8283;48.504;13.734;2023-08-20T00:23:40;24.50;73.60
16347;DHT22;8283;48.504;13.734;2023-08-20T00:26:25;24.40;73.60
16347;DHT22;8283;48.504;13.734;2023-08-20T00:29:09;24.40;73.70
16347;DHT22;8283;48.504;13.734;2023-08-20T00:31:54;24.30;73.80
16347;DHT22;8283;48.504;13.734;2023-08-20T00:34:38;24.40;74.00
16347;DHT22;8283;48.504;13.734;2023-08-20T00:37:22;24.40;74.10
16347;DHT22;8283;48.504;13.734;2023-08-20T00:40:07;24.30;74.10
16347;DHT22;8283;48.504;13.734;2023-08-20T00:42:53;24.30;74.10
16347;DHT22;8283;48.504;13.734;2023-08-20T00:45:37;24.30;74.10
16347;DHT22;8283;48.504;13.734;2023-08-20T00:48:21;24.30;74.20
16347;DHT22;8283;48.504;13.734;2023-08-20T00:51:06;24.20;74.90
16347;DHT22;8283;48.504;13.734;2023-08-20T00:53:50;24.20;74.30
16347;DHT22;8283;48.504;13.734;2023-08-20T00:56:35;24.20;74.50
16347;DHT22;8283;48.504;13.734;2023-08-20T00:59:20;24.20;74.50
16347;DHT22;8283;48.504;13.734;2023-08-20T01:02:05;24.10;74.60
16347;DHT22;8283;48.504;13.734;2023-08-20T01:04:50;24.10;74.60
16347;DHT22;8283;48.504;13.734;2023-08-20T01:10:57;24.10;76.30
16347;DHT22;8283;48.504;13.734;2023-08-20T01:13:42;24.00;77.10
16347;DHT22;8283;48.504;13.734;2023-08-20T01:16:26;24.00;75.00
16347;DHT22;8283;48.504;13.734;2023-08-20T01:19:17;23.90;75.20
16347;DHT22;8283;48.504;13.734;2023-08-20T01:22:34;23.90;76.40
16347;DHT22;8283;48.504;13.734;2023-08-20T01:28:30;23.90;76.40
16347;DHT22;8283;48.504;13.734;2023-08-20T01:31:15;23.80;75.80
16347;DHT22;8283;48.504;13.734;2023-08-20T01:34:03;23.70;75.10
16347;DHT22;8283;48.504;13.734;2023-08-20T01:36:47;23.70;75.50
16347;DHT22;8283;48.504;13.734;2023-08-20T01:39:32;23.70;75.70
16347;DHT22;8283;48.504;13.734;2023-08-20T01:42:17;23.70;75.90
16347;DHT22;8283;48.504;13.734;2023-08-20T01:45:04;23.60;76.00
16347;DHT22;8283;48.504;13.734;2023-08-20T01:47:49;23.60;76.30
16347;DHT22;8283;48.504;13.734;2023-08-20T01:50:35;23.60;76.40
16347;DHT22;8283;48.504;13.734;2023-08-20T01:53:19;23.60;76.70
16347;DHT22;8283;48.504;13.734;2023-08-20T01:56:10;23.60;76.50
16347;DHT22;8283;48.504;13.734;2023-08-20T01:58:55;23.60;78.00
16347;DHT22;8283;48.504;13.734;2023-08-20T02:01:39;23.50;76.60
16347;DHT22;8283;48.504;13.734;2023-08-20T02:04:23;23.50;76.90
16347;DHT22;8283;48.504;13.734;2023-08-20T02:07:07;23.50;76.90
16347;DHT22;8283;48.504;13.734;2023-08-20T02:09:51;23.40;77.00
16347;DHT22;8283;48.504;13.734;2023-08-20T02:12:35;23.40;77.20
16347;DHT22;8283;48.504;13.734;2023-08-20T02:15:20;23.40;77.30
16347;DHT22;8283;48.504;13.734;2023-08-20T02:18:04;23.40;78.20
16347;DHT22;8283;48.504;13.734;2023-08-20T02:20:49;23.30;77.50
16347;DHT22;8283;48.504;13.734;2023-08-20T02:23:33;23.30;77.70
16347;DHT22;8283;48.504;13.734;2023-08-20T02:26:17;23.30;77.90
16347;DHT22;8283;48.504;13.734;2023-08-20T02:29:01;23.40;78.20
16347;DHT22;8283;48.504;13.734;2023-08-20T02:31:47;23.20;78.20
16347;DHT22;8283;48.504;13.734;2023-08-20T02:34:33;23.20;78.30
16347;DHT22;8283;48.504;13.734;2023-08-20T02:37:18;23.20;78.40
16347;DHT22;8283;48.504;13.734;2023-08-20T02:40:03;23.20;78.70
16347;DHT22;8283;48.504;13.734;2023-08-20T02:42:48;23.10;78.80
16347;DHT22;8283;48.504;13.734;2023-08-20T02:45:33;23.10;78.90
16347;DHT22;8283;48.504;13.734;2023-08-20T02:48:17;23.10;79.10
16347;DHT22;8283;48.504;13.734;2023-08-20T02:51:02;23.10;79.40
16347;DHT22;8283;48.504;13.734;2023-08-20T02:53:47;23.10;79.40
16347;DHT22;8283;48.504;13.734;2023-08-20T02:56:31;23.10;79.40
16347;DHT22;8283;48.504;13.734;2023-08-20T02:59:15;23.10;79.40
16347;DHT22;8283;48.504;13.734;2023-08-20T03:01:59;23.10;79.50
16347;DHT22;8283;48.504;13.734;2023-08-20T03:04:44;23.10;80.30
16347;DHT22;8283;48.504;13.734;2023-08-20T03:07:28;23.10;79.60
16347;DHT22;8283;48.504;13.734;2023-08-20T03:10:12;23.00;79.60
16347;DHT22;8283;48.504;13.734;2023-08-20T03:12:57;23.00;79.80
16347;DHT22;8283;48.504;13.734;2023-08-20T03:15:41;23.00;80.10
16347;DHT22;8283;48.504;13.734;2023-08-20T03:18:26;23.00;80.30
16347;DHT22;8283;48.504;13.734;2023-08-20T03:21:11;23.00;80.50
16347;DHT22;8283;48.504;13.734;2023-08-20T03:23:55;23.00;80.60
16347;DHT22;8283;48.504;13.734;2023-08-20T03:26:39;23.00;80.80
16347;DHT22;8283;48.504;13.734;2023-08-20T03:29:24;22.90;80.80
16347;DHT22;8283;48.504;13.734;2023-08-20T03:32:09;22.90;81.70
16347;DHT22;8283;48.504;13.734;2023-08-20T03:34:54;23.00;81.20
16347;DHT22;8283;48.504;13.734;2023-08-20T03:37:40;22.90;81.20
16347;DHT22;8283;48.504;13.734;2023-08-20T03:40:24;22.90;81.30
16347;DHT22;8283;48.504;13.734;2023-08-20T03:43:09;22.90;81.40
16347;DHT22;8283;48.504;13.734;2023-08-20T03:45:53;22.90;81.50
16347;DHT22;8283;48.504;13.734;2023-08-20T03:48:37;22.90;81.50
16347;DHT22;8283;48.504;13.734;2023-08-20T03:51:22;22.90;81.50
16347;DHT22;8283;48.504;13.734;2023-08-20T03:54:06;22.70;81.50
16347;DHT22;8283;48.504;13.734;2023-08-20T03:56:50;22.80;81.60
16347;DHT22;8283;48.504;13.734;2023-08-20T03:59:35;22.80;81.80
16347;DHT22;8283;48.504;13.734;2023-08-20T04:02:19;22.80;82.00
16347;DHT22;8283;48.504;13.734;2023-08-20T04:05:03;22.70;82.10
16347;DHT22;8283;48.504;13.734;2023-08-20T04:07:48;22.70;82.20
16347;DHT22;8283;48.504;13.734;2023-08-20T04:10:32;22.70;82.30
16347;DHT22;8283;48.504;13.734;2023-08-20T04:13:17;22.70;82.40
16347;DHT22;8283;48.504;13.734;2023-08-20T04:16:03;22.70;82.60
16347;DHT22;8283;48.504;13.734;2023-08-20T04:18:47;22.70;82.70
16347;DHT22;8283;48.504;13.734;2023-08-20T04:21:32;22.70;82.80
16347;DHT22;8283;48.504;13.734;2023-08-20T04:24:17;22.70;83.00
16347;DHT22;8283;48.504;13.734;2023-08-20T04:27:02;22.70;83.10
16347;DHT22;8283;48.504;13.734;2023-08-20T04:29:47;22.70;83.40
16347;DHT22;8283;48.504;13.734;2023-08-20T04:32:32;22.60;83.40
16347;DHT22;8283;48.504;13.734;2023-08-20T04:35:17;22.60;83.50
16347;DHT22;8283;48.504;13.734;2023-08-20T04:38:02;22.70;83.60
16347;DHT22;8283;48.504;13.734;2023-08-20T04:40:50;22.70;84.00
16347;DHT22;8283;48.504;13.734;2023-08-20T04:43:34;22.60;84.70
16347;DHT22;8283;48.504;13.734;2023-08-20T04:46:19;22.70;83.90
16347;DHT22;8283;48.504;13.734;2023-08-20T04:49:05;22.60;83.90
16347;DHT22;8283;48.504;13.734;2023-08-20T04:51:50;22.70;84.20
16347;DHT22;8283;48.504;13.734;2023-08-20T04:54:36;22.70;84.30
16347;DHT22;8283;48.504;13.734;2023-08-20T04:57:20;22.70;84.50
16347;DHT22;8283;48.504;13.734;2023-08-20T05:00:06;22.70;84.60
16347;DHT22;8283;48.504;13.734;2023-08-20T05:03:04;22.70;84.90
16347;DHT22;8283;48.504;13.734;2023-08-20T05:05:49;22.70;84.90
16347;DHT22;8283;48.504;13.734;2023-08-20T05:08:34;22.80;85.20
16347;DHT22;8283;48.504;13.734;2023-08-20T05:11:18;22.80;85.10
16347;DHT22;8283;48.504;13.734;2023-08-20T05:14:03;22.80;85.10
16347;DHT22;8283;48.504;13.734;2023-08-20T05:16:48;22.80;85.10
16347;DHT22;8283;48.504;13.734;2023-08-20T05:19:32;22.90;85.20
16347;DHT22;8283;48.504;13.734;2023-08-20T05:22:16;22.90;85.30
16347;DHT22;8283;48.504;13.734;2023-08-20T05:25:01;22.90;85.20
16347;DHT22;8283;48.504;13.734;2023-08-20T05:27:45;22.90;85.30
16347;DHT22;8283;48.504;13.734;2023-08-20T05:30:30;22.80;85.30
16347;DHT22;8283;48.504;13.734;2023-08-20T05:33:15;22.90;85.40
16347;DHT22;8283;48.504;13.734;2023-08-20T05:35:59;23.00;85.60
16347;DHT22;8283;48.504;13.734;2023-08-20T05:38:44;22.90;85.70
16347;DHT22;8283;48.504;13.734;2023-08-20T05:41:29;22.90;85.60
16347;DHT22;8283;48.504;13.734;2023-08-20T05:44:14;22.90;85.80
16347;DHT22;8283;48.504;13.734;2023-08-20T05:46:59;22.90;85.90
16347;DHT22;8283;48.504;13.734;2023-08-20T05:49:45;22.90;86.00
16347;DHT22;8283;48.504;13.734;2023-08-20T05:52:29;22.90;86.00
16347;DHT22;8283;48.504;13.734;2023-08-20T05:55:13;22.90;85.90
16347;DHT22;8283;48.504;13.734;2023-08-20T05:57:57;23.00;86.20
16347;DHT22;8283;48.504;13.734;2023-08-20T06:00:42;22.90;86.00
16347;DHT22;8283;48.504;13.734;2023-08-20T06:03:26;23.00;86.40
16347;DHT22;8283;48.504;13.734;2023-08-20T06:06:10;23.00;86.80
16347;DHT22;8283;48.504;13.734;2023-08-20T06:08:55;23.20;87.50
16347;DHT22;8283;48.504;13.734;2023-08-20T06:11:39;23.10;88.00
16347;DHT22;8283;48.504;13.734;2023-08-20T06:14:23;23.40;88.60
16347;DHT22;8283;48.504;13.734;2023-08-20T06:17:07;23.50;89.00
16347;DHT22;8283;48.504;13.734;2023-08-20T06:19:52;23.60;89.40
16347;DHT22;8283;48.504;13.734;2023-08-20T06:22:38;23.80;89.80
16347;DHT22;8283;48.504;13.734;2023-08-20T06:25:22;24.00;90.00
16347;DHT22;8283;48.504;13.734;2023-08-20T06:28:08;24.30;90.00
16347;DHT22;8283;48.504;13.734;2023-08-20T06:30:52;24.50;89.90
16347;DHT22;8283;48.504;13.734;2023-08-20T06:33:36;24.80;89.80
16347;DHT22;8283;48.504;13.734;2023-08-20T06:36:20;25.00;89.70
16347;DHT22;8283;48.504;13.734;2023-08-20T06:39:04;25.30;89.20
16347;DHT22;8283;48.504;13.734;2023-08-20T06:41:49;25.50;88.70
16347;DHT22;8283;48.504;13.734;2023-08-20T06:44:38;25.70;88.10
16347;DHT22;8283;48.504;13.734;2023-08-20T06:47:22;26.00;87.80
16347;DHT22;8283;48.504;13.734;2023-08-20T06:50:07;26.20;87.30
16347;DHT22;8283;48.504;13.734;2023-08-20T06:52:51;26.40;87.20
16347;DHT22;8283;48.504;13.734;2023-08-20T06:55:35;26.60;87.00
16347;DHT22;8283;48.504;13.734;2023-08-20T06:58:20;26.80;86.40
16347;DHT22;8283;48.504;13.734;2023-08-20T07:01:04;27.10;85.90
16347;DHT22;8283;48.504;13.734;2023-08-20T07:03:52;27.30;85.40
16347;DHT22;8283;48.504;13.734;2023-08-20T07:06:36;27.50;84.70
16347;DHT22;8283;48.504;13.734;2023-08-20T07:09:20;27.70;84.30
16347;DHT22;8283;48.504;13.734;2023-08-20T07:12:05;27.90;83.90
16347;DHT22;8283;48.504;13.734;2023-08-20T07:14:49;28.10;83.20
16347;DHT22;8283;48.504;13.734;2023-08-20T07:17:33;28.20;83.00
16347;DHT22;8283;48.504;13.734;2023-08-20T07:20:18;28.40;82.30
16347;DHT22;8283;48.504;13.734;2023-08-20T07:23:03;28.60;81.90
16347;DHT22;8283;48.504;13.734;2023-08-20T07:25:47;28.70;81.60
16347;DHT22;8283;48.504;13.734;2023-08-20T07:28:32;28.90;81.50
16347;DHT22;8283;48.504;13.734;2023-08-20T07:31:35;29.10;81.40
16347;DHT22;8283;48.504;13.734;2023-08-20T07:34:20;29.30;80.90
16347;DHT22;8283;48.504;13.734;2023-08-20T07:37:04;29.50;80.20
16347;DHT22;8283;48.504;13.734;2023-08-20T07:39:49;29.70;79.70
16347;DHT22;8283;48.504;13.734;2023-08-20T07:42:33;29.80;79.30
16347;DHT22;8283;48.504;13.734;2023-08-20T07:45:17;30.00;79.10
16347;DHT22;8283;48.504;13.734;2023-08-20T07:48:02;30.00;78.30
16347;DHT22;8283;48.504;13.734;2023-08-20T07:50:46;30.10;77.80
16347;DHT22;8283;48.504;13.734;2023-08-20T07:53:31;30.30;77.50
16347;DHT22;8283;48.504;13.734;2023-08-20T07:56:16;30.40;77.20
16347;DHT22;8283;48.504;13.734;2023-08-20T07:59:00;30.50;76.90
16347;DHT22;8283;48.504;13.734;2023-08-20T08:01:45;30.60;76.80
16347;DHT22;8283;48.504;13.734;2023-08-20T08:04:29;30.80;76.90
16347;DHT22;8283;48.504;13.734;2023-08-20T08:07:14;31.00;76.50
16347;DHT22;8283;48.504;13.734;2023-08-20T08:09:58;31.20;76.40
16347;DHT22;8283;48.504;13.734;2023-08-20T08:12:42;31.40;76.10
16347;DHT22;8283;48.504;13.734;2023-08-20T08:15:27;31.70;75.80
16347;DHT22;8283;48.504;13.734;2023-08-20T08:18:11;31.90;75.50
16347;DHT22;8283;48.504;13.734;2023-08-20T08:20:56;32.20;74.90
16347;DHT22;8283;48.504;13.734;2023-08-20T08:23:40;32.40;74.30
16347;DHT22;8283;48.504;13.734;2023-08-20T08:26:24;32.60;72.70
16347;DHT22;8283;48.504;13.734;2023-08-20T08:29:09;32.90;72.30
16347;DHT22;8283;48.504;13.734;2023-08-20T08:31:54;33.00;72.00
16347;DHT22;8283;48.504;13.734;2023-08-20T08:34:38;33.20;71.60
16347;DHT22;8283;48.504;13.734;2023-08-20T08:37:23;33.40;71.20
16347;DHT22;8283;48.504;13.734;2023-08-20T08:40:08;33.60;70.90
16347;DHT22;8283;48.504;13.734;2023-08-20T08:42:53;33.80;69.90
16347;DHT22;8283;48.504;13.734;2023-08-20T08:45:37;34.00;69.60
16347;DHT22;8283;48.504;13.734;2023-08-20T08:48:22;34.20;69.20
16347;DHT22;8283;48.504;13.734;2023-08-20T08:51:06;34.30;68.70
16347;DHT22;8283;48.504;13.734;2023-08-20T08:53:50;34.50;67.90
16347;DHT22;8283;48.504;13.734;2023-08-20T08:56:34;34.70;66.90
16347;DHT22;8283;48.504;13.734;2023-08-20T08:59:19;34.80;66.20
16347;DHT22;8283;48.504;13.734;2023-08-20T09:02:10;34.90;65.90
16347;DHT22;8283;48.504;13.734;2023-08-20T09:04:55;35.10;63.30
16347;DHT22;8283;48.504;13.734;2023-08-20T09:07:42;35.20;65.00
16347;DHT22;8283;48.504;13.734;2023-08-20T09:10:27;35.40;63.50
16347;DHT22;8283;48.504;13.734;2023-08-20T09:13:12;35.50;64.30
16347;DHT22;8283;48.504;13.734;2023-08-20T09:15:57;35.70;63.40
16347;DHT22;8283;48.504;13.734;2023-08-20T09:18:44;35.80;63.20
16347;DHT22;8283;48.504;13.734;2023-08-20T09:21:28;36.00;61.70
16347;DHT22;8283;48.504;13.734;2023-08-20T09:24:13;36.10;62.50
16347;DHT22;8283;48.504;13.734;2023-08-20T09:26:57;36.30;61.90
16347;DHT22;8283;48.504;13.734;2023-08-20T09:29:56;36.40;61.20
16347;DHT22;8283;48.504;13.734;2023-08-20T09:32:42;36.60;59.70
16347;DHT22;8283;48.504;13.734;2023-08-20T09:35:26;36.70;60.80
16347;DHT22;8283;48.504;13.734;2023-08-20T09:38:11;36.80;60.90
16347;DHT22;8283;48.504;13.734;2023-08-20T09:40:55;37.00;60.20
16347;DHT22;8283;48.504;13.734;2023-08-20T09:43:45;37.10;59.70
16347;DHT22;8283;48.504;13.734;2023-08-20T09:46:31;37.30;59.60
16347;DHT22;8283;48.504;13.734;2023-08-20T09:49:17;37.40;58.60
16347;DHT22;8283;48.504;13.734;2023-08-20T09:52:05;37.50;58.50
16347;DHT22;8283;48.504;13.734;2023-08-20T09:55:08;37.60;58.00
16347;DHT22;8283;48.504;13.734;2023-08-20T09:57:53;37.70;56.60
16347;DHT22;8283;48.504;13.734;2023-08-20T10:00:38;37.70;57.50
16347;DHT22;8283;48.504;13.734;2023-08-20T10:03:22;37.70;57.10
16347;DHT22;8283;48.504;13.734;2023-08-20T10:06:06;37.70;57.10
16347;DHT22;8283;48.504;13.734;2023-08-20T10:08:51;37.70;56.50
16347;DHT22;8283;48.504;13.734;2023-08-20T10:11:35;37.70;56.60
16347;DHT22;8283;48.504;13.734;2023-08-20T10:14:22;37.70;56.20
16347;DHT22;8283;48.504;13.734;2023-08-20T10:17:11;37.70;56.00
16347;DHT22;8283;48.504;13.734;2023-08-20T10:19:57;37.70;54.80
16347;DHT22;8283;48.504;13.734;2023-08-20T10:22:43;37.70;55.20
16347;DHT22;8283;48.504;13.734;2023-08-20T10:25:29;37.80;55.70
16347;DHT22;8283;48.504;13.734;2023-08-20T10:28:27;37.80;55.60
16347;DHT22;8283;48.504;13.734;2023-08-20T10:31:13;37.90;54.20
16347;DHT22;8283;48.504;13.734;2023-08-20T10:33:58;38.10;55.60
16347;DHT22;8283;48.504;13.734;2023-08-20T10:36:42;38.20;55.50
16347;DHT22;8283;48.504;13.734;2023-08-20T10:39:26;38.40;55.30
16347;DHT22;8283;48.504;13.734;2023-08-20T10:45:08;38.90;53.00
16347;DHT22;8283;48.504;13.734;2023-08-20T10:47:52;39.10;54.30
16347;DHT22;8283;48.504;13.734;2023-08-20T10:50:37;39.30;54.60
16347;DHT22;8283;48.504;13.734;2023-08-20T10:53:24;39.40;54.30
16347;DHT22;8283;48.504;13.734;2023-08-20T10:56:15;39.50;53.70
16347;DHT22;8283;48.504;13.734;2023-08-20T10:59:06;39.60;54.20
16347;DHT22;8283;48.504;13.734;2023-08-20T11:01:55;39.60;52.50
16347;DHT22;8283;48.504;13.734;2023-08-20T11:04:40;39.70;53.20
16347;DHT22;8283;48.504;13.734;2023-08-20T11:07:24;39.70;53.00
16347;DHT22;8283;48.504;13.734;2023-08-20T11:10:15;39.70;53.30
16347;DHT22;8283;48.504;13.734;2023-08-20T11:13:00;39.70;52.00
16347;DHT22;8283;48.504;13.734;2023-08-20T11:15:47;39.70;52.10
16347;DHT22;8283;48.504;13.734;2023-08-20T11:18:32;39.60;52.30
16347;DHT22;8283;48.504;13.734;2023-08-20T11:21:17;39.60;52.00
16347;DHT22;8283;48.504;13.734;2023-08-20T11:24:02;39.60;51.80
16347;DHT22;8283;48.504;13.734;2023-08-20T11:26:46;39.50;51.50
16347;DHT22;8283;48.504;13.734;2023-08-20T11:29:31;39.50;51.40
16347;DHT22;8283;48.504;13.734;2023-08-20T11:32:15;39.50;50.90
16347;DHT22;8283;48.504;13.734;2023-08-20T11:34:59;39.50;50.60
16347;DHT22;8283;48.504;13.734;2023-08-20T11:37:43;39.50;51.10
16347;DHT22;8283;48.504;13.734;2023-08-20T11:40:28;39.60;51.40
16347;DHT22;8283;48.504;13.734;2023-08-20T11:43:12;39.60;50.80
16347;DHT22;8283;48.504;13.734;2023-08-20T11:45:56;39.70;50.80
16347;DHT22;8283;48.504;13.734;2023-08-20T11:51:48;39.70;49.50
16347;DHT22;8283;48.504;13.734;2023-08-20T11:54:33;39.80;50.50
16347;DHT22;8283;48.504;13.734;2023-08-20T11:57:18;39.80;50.10
16347;DHT22;8283;48.504;13.734;2023-08-20T12:00:06;39.70;49.70
16347;DHT22;8283;48.504;13.734;2023-08-20T12:03:00;39.60;49.00
16347;DHT22;8283;48.504;13.734;2023-08-20T12:05:44;39.60;49.50
16347;DHT22;8283;48.504;13.734;2023-08-20T12:08:29;39.50;49.50
16347;DHT22;8283;48.504;13.734;2023-08-20T12:11:27;39.40;49.70
16347;DHT22;8283;48.504;13.734;2023-08-20T12:14:12;39.30;49.50
16347;DHT22;8283;48.504;13.734;2023-08-20T12:16:56;39.30;49.90
16347;DHT22;8283;48.504;13.734;2023-08-20T12:19:41;39.30;49.90
16347;DHT22;8283;48.504;13.734;2023-08-20T12:22:25;39.20;50.00
16347;DHT22;8283;48.504;13.734;2023-08-20T12:25:09;39.10;50.00
16347;DHT22;8283;48.504;13.734;2023-08-20T12:27:54;39.10;49.90
16347;DHT22;8283;48.504;13.734;2023-08-20T12:30:38;39.00;50.00
16347;DHT22;8283;48.504;13.734;2023-08-20T12:33:23;39.10;49.90
16347;DHT22;8283;48.504;13.734;2023-08-20T12:36:07;39.10;49.80
16347;DHT22;8283;48.504;13.734;2023-08-20T12:38:51;39.20;49.50
16347;DHT22;8283;48.504;13.734;2023-08-20T12:41:35;39.20;49.10
16347;DHT22;8283;48.504;13.734;2023-08-20T12:44:20;39.40;48.90
16347;DHT22;8283;48.504;13.734;2023-08-20T12:47:05;39.50;48.40
16347;DHT22;8283;48.504;13.734;2023-08-20T12:49:49;39.50;48.80
16347;DHT22;8283;48.504;13.734;2023-08-20T12:52:33;39.60;48.60
16347;DHT22;8283;48.504;13.734;2023-08-20T12:55:18;39.70;48.70
16347;DHT22;8283;48.504;13.734;2023-08-20T12:58:02;39.80;48.20
16347;DHT22;8283;48.504;13.734;2023-08-20T13:00:47;39.90;48.30
16347;DHT22;8283;48.504;13.734;2023-08-20T13:03:32;40.00;47.80
16347;DHT22;8283;48.504;13.734;2023-08-20T13:06:16;40.10;48.20
16347;DHT22;8283;48.504;13.734;2023-08-20T13:09:01;40.20;47.90
16347;DHT22;8283;48.504;13.734;2023-08-20T13:11:47;40.30;47.90
16347;DHT22;8283;48.504;13.734;2023-08-20T13:14:32;40.50;47.80
16347;DHT22;8283;48.504;13.734;2023-08-20T13:17:17;40.60;47.80
16347;DHT22;8283;48.504;13.734;2023-08-20T13:20:02;40.80;47.20
16347;DHT22;8283;48.504;13.734;2023-08-20T13:22:48;40.90;47.20
16347;DHT22;8283;48.504;13.734;2023-08-20T13:25:33;40.90;47.10
16347;DHT22;8283;48.504;13.734;2023-08-20T13:28:17;41.10;46.40
16347;DHT22;8283;48.504;13.734;2023-08-20T13:31:02;41.10;46.10
16347;DHT22;8283;48.504;13.734;2023-08-20T13:33:46;41.10;46.70
16347;DHT22;8283;48.504;13.734;2023-08-20T13:36:31;41.20;47.10
16347;DHT22;8283;48.504;13.734;2023-08-20T13:39:15;41.40;47.30
16347;DHT22;8283;48.504;13.734;2023-08-20T13:42:00;41.50;47.70
16347;DHT22;8283;48.504;13.734;2023-08-20T13:44:44;41.60;47.60
16347;DHT22;8283;48.504;13.734;2023-08-20T13:47:28;41.70;46.70
16347;DHT22;8283;48.504;13.734;2023-08-20T13:50:12;41.80;47.00
16347;DHT22;8283;48.504;13.734;2023-08-20T13:52:56;41.90;46.80
16347;DHT22;8283;48.504;13.734;2023-08-20T13:55:40;42.00;46.70
16347;DHT22;8283;48.504;13.734;2023-08-20T13:58:25;42.10;46.80
16347;DHT22;8283;48.504;13.734;2023-08-20T14:01:09;42.10;46.90
16347;DHT22;8283;48.504;13.734;2023-08-20T14:03:53;42.20;46.80
16347;DHT22;8283;48.504;13.734;2023-08-20T14:06:38;42.20;47.20
16347;DHT22;8283;48.504;13.734;2023-08-20T14:09:22;42.30;46.90
16347;DHT22;8283;48.504;13.734;2023-08-20T14:12:07;42.30;46.60
16347;DHT22;8283;48.504;13.734;2023-08-20T14:14:51;42.40;46.60
16347;DHT22;8283;48.504;13.734;2023-08-20T14:17:36;42.40;46.30
16347;DHT22;8283;48.504;13.734;2023-08-20T14:20:20;42.40;46.30
16347;DHT22;8283;48.504;13.734;2023-08-20T14:23:04;42.40;46.20
16347;DHT22;8283;48.504;13.734;2023-08-20T14:25:49;42.40;46.20
16347;DHT22;8283;48.504;13.734;2023-08-20T14:28:33;42.50;46.40
16347;DHT22;8283;48.504;13.734;2023-08-20T14:31:18;42.50;46.30
16347;DHT22;8283;48.504;13.734;2023-08-20T14:34:04;42.50;46.20
16347;DHT22;8283;48.504;13.734;2023-08-20T14:36:48;42.50;46.20
16347;DHT22;8283;48.504;13.734;2023-08-20T14:39:33;42.50;46.20
16347;DHT22;8283;48.504;13.734;2023-08-20T14:42:17;42.50;46.60
16347;DHT22;8283;48.504;13.734;2023-08-20T14:45:02;42.40;46.60
16347;DHT22;8283;48.504;13.734;2023-08-20T14:47:48;42.30;46.70
16347;DHT22;8283;48.504;13.734;2023-08-20T14:50:32;42.10;46.50
16347;DHT22;8283;48.504;13.734;2023-08-20T14:53:17;41.90;46.60
16347;DHT22;8283;48.504;13.734;2023-08-20T14:56:02;41.70;46.40
16347;DHT22;8283;48.504;13.734;2023-08-20T14:58:47;41.50;46.80
16347;DHT22;8283;48.504;13.734;2023-08-20T15:01:31;41.20;47.00
16347;DHT22;8283;48.504;13.734;2023-08-20T15:04:16;41.00;47.00
16347;DHT22;8283;48.504;13.734;2023-08-20T15:07:00;40.80;47.30
16347;DHT22;8283;48.504;13.734;2023-08-20T15:09:45;40.50;47.20
16347;DHT22;8283;48.504;13.734;2023-08-20T15:12:35;40.30;47.60
16347;DHT22;8283;48.504;13.734;2023-08-20T15:15:19;40.10;47.50
16347;DHT22;8283;48.504;13.734;2023-08-20T15:18:05;39.90;47.50
16347;DHT22;8283;48.504;13.734;2023-08-20T15:20:56;39.70;47.50
16347;DHT22;8283;48.504;13.734;2023-08-20T15:23:40;39.50;47.60
16347;DHT22;8283;48.504;13.734;2023-08-20T15:26:25;39.30;47.60
16347;DHT22;8283;48.504;13.734;2023-08-20T15:29:09;39.10;47.60
16347;DHT22;8283;48.504;13.734;2023-08-20T15:31:54;38.90;47.90
16347;DHT22;8283;48.504;13.734;2023-08-20T15:34:38;38.70;48.00
16347;DHT22;8283;48.504;13.734;2023-08-20T15:37:23;38.60;48.20
16347;DHT22;8283;48.504;13.734;2023-08-20T15:40:08;38.50;48.10
16347;DHT22;8283;48.504;13.734;2023-08-20T15:42:56;38.40;48.10
16347;DHT22;8283;48.504;13.734;2023-08-20T15:45:41;38.20;48.10
16347;DHT22;8283;48.504;13.734;2023-08-20T15:48:25;38.10;48.20
16347;DHT22;8283;48.504;13.734;2023-08-20T15:51:09;38.00;48.40
16347;DHT22;8283;48.504;13.734;2023-08-20T15:53:54;37.90;48.40
16347;DHT22;8283;48.504;13.734;2023-08-20T15:56:39;37.90;48.20
16347;DHT22;8283;48.504;13.734;2023-08-20T15:59:24;37.80;48.30
16347;DHT22;8283;48.504;13.734;2023-08-20T16:02:08;37.70;48.30
16347;DHT22;8283;48.504;13.734;2023-08-20T16:04:55;37.60;48.80
16347;DHT22;8283;48.504;13.734;2023-08-20T16:07:40;37.50;49.10
16347;DHT22;8283;48.504;13.734;2023-08-20T16:10:25;37.40;49.00
16347;DHT22;8283;48.504;13.734;2023-08-20T16:13:10;37.20;49.00
16347;DHT22;8283;48.504;13.734;2023-08-20T16:15:54;37.10;49.10
16347;DHT22;8283;48.504;13.734;2023-08-20T16:18:38;37.10;49.40
16347;DHT22;8283;48.504;13.734;2023-08-20T16:21:23;37.00;49.50
16347;DHT22;8283;48.504;13.734;2023-08-20T16:24:07;36.90;49.40
16347;DHT22;8283;48.504;13.734;2023-08-20T16:26:52;36.80;49.30
16347;DHT22;8283;48.504;13.734;2023-08-20T16:29:37;36.70;49.20
16347;DHT22;8283;48.504;13.734;2023-08-20T16:32:21;36.50;49.00
16347;DHT22;8283;48.504;13.734;2023-08-20T16:35:06;36.30;48.90
16347;DHT22;8283;48.504;13.734;2023-08-20T16:37:51;36.10;49.00
16347;DHT22;8283;48.504;13.734;2023-08-20T16:40:35;35.70;49.00
16347;DHT22;8283;48.504;13.734;2023-08-20T16:43:20;35.40;49.10
16347;DHT22;8283;48.504;13.734;2023-08-20T16:46:04;35.10;49.60
16347;DHT22;8283;48.504;13.734;2023-08-20T16:48:49;34.90;49.90
16347;DHT22;8283;48.504;13.734;2023-08-20T16:51:33;34.70;50.20
16347;DHT22;8283;48.504;13.734;2023-08-20T16:54:17;34.50;50.30
16347;DHT22;8283;48.504;13.734;2023-08-20T16:57:01;34.30;50.50
16347;DHT22;8283;48.504;13.734;2023-08-20T16:59:46;34.10;50.60
16347;DHT22;8283;48.504;13.734;2023-08-20T17:02:31;34.00;50.70
16347;DHT22;8283;48.504;13.734;2023-08-20T17:05:15;33.90;50.90
16347;DHT22;8283;48.504;13.734;2023-08-20T17:07:59;33.80;51.10
16347;DHT22;8283;48.504;13.734;2023-08-20T17:10:45;33.60;51.10
16347;DHT22;8283;48.504;13.734;2023-08-20T17:13:29;33.50;51.10
16347;DHT22;8283;48.504;13.734;2023-08-20T17:16:13;33.40;51.30
16347;DHT22;8283;48.504;13.734;2023-08-20T17:18:58;33.20;51.60
16347;DHT22;8283;48.504;13.734;2023-08-20T17:21:42;33.10;51.90
16347;DHT22;8283;48.504;13.734;2023-08-20T17:24:27;33.00;52.00
16347;DHT22;8283;48.504;13.734;2023-08-20T17:27:12;33.00;52.00
16347;DHT22;8283;48.504;13.734;2023-08-20T17:29:56;32.80;52.20
16347;DHT22;8283;48.504;13.734;2023-08-20T17:32:40;32.70;52.60
16347;DHT22;8283;48.504;13.734;2023-08-20T17:35:25;32.60;52.40